Piper Inness — WDC3984 — position and weather

sailwx.info

Track history (hours):
 
Tides and Currents Weather Stations Pressure Air Temp Water Temp Dewpoint Dewpoint Depression Visibility Wind Speed Wind Dir Waves Ship Positions

Piper Inness

Owner: Foss Maritime Co, Seattle, WA. More information available from US FCC via Universal Licensing System and Coast Guard Vessel Documentation Center.

Last reported at 2015-Apr-01 04:33 UTC. Time now 2015-Apr-01 04:37 UTC.
Position N 32°52' W 117°48'.

; draft 2 m.

Type: Other ship. MMSI: 367017440.

Date/timePositionNaut miles runAvg speedWind from/ knotsBaromVisibWave heightAir tempDewpointWater temp
2015-Apr-01 04:33N 32°52' W 117°48'0 0.3
2015-Apr-01 03:34N 32°52' W 117°48'0 0.4
2015-Apr-01 02:34N 32°51' W 117°49'2 2.4
2015-Apr-01 01:34N 32°49' W 117°49'5 4.5
2015-Apr-01 00:33N 32°45' W 117°46'4 4.3
2015-Mar-31 23:33N 32°42' W 117°43'1 1.1
2015-Mar-31 22:33N 32°41' W 117°43'3 2.7
2015-Mar-31 21:34N 32°39' W 117°40'1 1.1
2015-Mar-31 20:34N 32°38' W 117°40'1111.2
2015-Mar-31 19:33N 32°48' W 117°47'1414.0
2015-Mar-31 18:33N 32°59' W 117°57'1717.2
2015-Mar-31 17:34N 33°13' W 118°08'1716.9
2015-Mar-31 16:33N 33°28' W 118°19'8 6.3
2015-Mar-31 15:19N 33°35' W 118°18'1114.0
2015-Mar-31 14:33N 33°45' W 118°13'1 1.1
2015-Mar-31 13:32N 33°46' W 118°13'0 0.0
2015-Mar-31 12:33N 33°46' W 118°13'0 0.0
2015-Mar-31 11:33N 33°46' W 118°13'0 0.0
2015-Mar-31 10:33N 33°46' W 118°13'0 0.0
2015-Mar-31 09:33N 33°46' W 118°13'0 0.0
2015-Mar-31 08:33N 33°46' W 118°13'0 0.0
2015-Mar-31 07:31N 33°46' W 118°13'0 0.0
2015-Mar-31 06:32N 33°46' W 118°13'0 0.0
2015-Mar-31 05:33N 33°46' W 118°13'0 0.0
2015-Mar-31 04:32N 33°46' W 118°13'0 0.0
2015-Mar-31 03:33N 33°46' W 118°13'0 0.0
2015-Mar-31 02:33N 33°46' W 118°13'0 0.0
2015-Mar-31 01:33N 33°46' W 118°13'0 0.0
2015-Mar-31 00:33N 33°46' W 118°13'0 0.0
2015-Mar-30 23:33N 33°46' W 118°13'0 0.0
2015-Mar-30 22:33N 33°46' W 118°13'0 0.0
2015-Mar-30 21:33N 33°46' W 118°13'0 0.0
2015-Mar-30 20:33N 33°46' W 118°13'0 0.0
2015-Mar-30 19:33N 33°46' W 118°13'0 0.0
2015-Mar-30 18:33N 33°46' W 118°13'0 0.0
2015-Mar-30 17:33N 33°46' W 118°13'0 0.0
2015-Mar-30 16:33N 33°46' W 118°13'0 0.0
2015-Mar-30 15:33N 33°46' W 118°13'0 0.0
2015-Mar-30 14:33N 33°46' W 118°13'0 0.0
2015-Mar-30 13:33N 33°46' W 118°13'0 0.0
2015-Mar-30 12:33N 33°46' W 118°13'0 0.0
2015-Mar-30 11:33N 33°46' W 118°13'0 0.0
2015-Mar-30 10:33N 33°46' W 118°13'0 0.0
2015-Mar-30 09:33N 33°46' W 118°13'0 0.0
2015-Mar-30 08:31N 33°46' W 118°13'0 0.0
2015-Mar-30 07:33N 33°46' W 118°13'0 0.0
2015-Mar-30 06:33N 33°46' W 118°13'0 0.0
2015-Mar-30 05:33N 33°46' W 118°13'0 0.0
2015-Mar-30 04:33N 33°46' W 118°13'0 0.0
2015-Mar-30 03:33N 33°46' W 118°13'0 0.0
2015-Mar-30 02:33N 33°46' W 118°13'0 0.0
2015-Mar-30 01:33N 33°46' W 118°13'0 0.0
2015-Mar-30 00:33N 33°46' W 118°13'0 0.0
2015-Mar-29 23:33N 33°46' W 118°13'0 0.0
2015-Mar-29 22:33N 33°46' W 118°13'0 0.0
2015-Mar-29 21:33N 33°46' W 118°13'0 0.0
2015-Mar-29 20:33N 33°46' W 118°13'0 0.0
2015-Mar-29 19:33N 33°46' W 118°13'0 0.0
2015-Mar-29 18:33N 33°46' W 118°13'0 0.0
2015-Mar-29 17:33N 33°46' W 118°13'0 0.0
2015-Mar-29 16:33N 33°46' W 118°13'0 0.0
2015-Mar-29 15:33N 33°46' W 118°13'0 0.0
2015-Mar-29 14:32N 33°46' W 118°13'0 0.0
2015-Mar-29 13:33N 33°46' W 118°13'0 0.0
2015-Mar-29 12:31N 33°46' W 118°13'0 0.0
2015-Mar-29 11:33N 33°46' W 118°13'0 0.0
2015-Mar-29 10:33N 33°46' W 118°13'0 0.0
2015-Mar-29 09:33N 33°46' W 118°13'0 0.0
2015-Mar-29 08:33N 33°46' W 118°13'0 0.0
2015-Mar-29 07:33N 33°46' W 118°13'0 0.0
2015-Mar-29 06:33N 33°46' W 118°13'0 0.0
2015-Mar-29 05:33N 33°46' W 118°13'0 0.0
2015-Mar-29 04:33N 33°46' W 118°13'0 0.0
2015-Mar-29 03:33N 33°46' W 118°13'0 0.0
2015-Mar-29 02:33N 33°46' W 118°13'0 0.0
2015-Mar-29 01:33N 33°46' W 118°13'0 0.0
2015-Mar-29 00:33N 33°46' W 118°13'0 0.0
2015-Mar-28 23:33N 33°46' W 118°13'0 0.0
2015-Mar-28 22:33N 33°46' W 118°13'0 0.0
2015-Mar-28 21:33N 33°46' W 118°13'0 0.0
2015-Mar-28 20:33N 33°46' W 118°13'0 0.0
2015-Mar-28 19:33N 33°46' W 118°13'0 0.0
2015-Mar-28 18:33N 33°46' W 118°13'0 0.0
2015-Mar-28 17:33N 33°46' W 118°13'0 0.0
2015-Mar-28 16:33N 33°46' W 118°13'0 0.0
2015-Mar-28 15:33N 33°46' W 118°13'0 0.0
2015-Mar-28 14:33N 33°46' W 118°13'0 0.0
2015-Mar-28 13:33N 33°46' W 118°13'0 0.0
2015-Mar-28 12:23N 33°46' W 118°13'0 0.0
2015-Mar-28 11:32N 33°46' W 118°13'0 0.0
2015-Mar-28 10:33N 33°46' W 118°13'0 0.0
2015-Mar-28 09:33N 33°46' W 118°13'0 0.0
2015-Mar-28 08:33N 33°46' W 118°13'0 0.0
2015-Mar-28 07:33N 33°46' W 118°13'0 0.0
2015-Mar-28 06:33N 33°46' W 118°13'0 0.0
2015-Mar-28 05:33N 33°46' W 118°13'0 0.0
2015-Mar-28 04:33N 33°46' W 118°13'0 0.0
2015-Mar-28 03:33N 33°46' W 118°13'0 0.0
2015-Mar-28 02:33N 33°46' W 118°13'0 0.0
2015-Mar-28 01:33N 33°46' W 118°13'0 0.0
2015-Mar-28 00:33N 33°46' W 118°13'1 0.6
2015-Mar-27 23:33N 33°46' W 118°13'3 3.0
2015-Mar-27 22:33N 33°44' W 118°16'0 0.5
2015-Mar-27 21:33N 33°44' W 118°16'0 0.0
2015-Mar-27 20:33N 33°44' W 118°16'0 0.0
2015-Mar-27 19:33N 33°44' W 118°16'2 2.2
2015-Mar-27 18:33N 33°43' W 118°14'3 3.1
2015-Mar-27 17:33N 33°46' W 118°13'0 0.0
2015-Mar-27 16:33N 33°46' W 118°13'0 0.0
2015-Mar-27 15:33N 33°46' W 118°13'0 0.0
2015-Mar-27 14:33N 33°46' W 118°13'0 0.0
2015-Mar-27 13:33N 33°46' W 118°13'0 0.0
2015-Mar-27 12:33N 33°46' W 118°13'0 0.0
2015-Mar-27 11:33N 33°46' W 118°13'0 0.0
2015-Mar-27 10:33N 33°46' W 118°13'0 0.0
2015-Mar-27 09:33N 33°46' W 118°13'0 0.0
2015-Mar-27 08:33N 33°46' W 118°13'0 0.0
2015-Mar-27 07:33N 33°46' W 118°13'0 0.0
2015-Mar-27 06:33N 33°46' W 118°13'0 0.0
2015-Mar-27 05:33N 33°46' W 118°13'0 0.0
2015-Mar-27 04:33N 33°46' W 118°13'3 2.6
2015-Mar-27 03:33N 33°44' W 118°12'1 0.5
2015-Mar-27 02:33N 33°44' W 118°12'2 2.1
2015-Mar-27 01:34N 33°46' W 118°13'8 7.6
2015-Mar-27 00:33N 33°39' W 118°09'1716.8
2015-Mar-26 23:33N 33°24' W 118°00'1616.4
2015-Mar-26 22:33N 33°10' W 117°51'1 1.4
2015-Mar-26 21:33N 33°09' W 117°52'1 1.3
2015-Mar-26 20:33N 33°08' W 117°51'1 1.3
2015-Mar-26 19:33N 33°07' W 117°51'3 3.0
2015-Mar-26 18:33N 33°04' W 117°50'1 1.0
2015-Mar-26 17:33N 33°05' W 117°51'1 0.9
2015-Mar-26 16:33N 33°04' W 117°50'1 0.6
2015-Mar-26 15:33N 33°04' W 117°51'1 0.7
2015-Mar-26 14:33N 33°04' W 117°50'1 0.6
2015-Mar-26 13:33N 33°03' W 117°50'0 0.4
2015-Mar-26 12:33N 33°03' W 117°50'2 1.8
2015-Mar-26 11:33N 33°02' W 117°49'1 0.6
2015-Mar-26 10:33N 33°02' W 117°50'2 1.7
2015-Mar-26 09:33N 33°01' W 117°48'0 0.3
2015-Mar-26 08:33N 33°01' W 117°48'1 1.0
2015-Mar-26 07:33N 33°00' W 117°47'1 0.7
2015-Mar-26 06:33N 32°59' W 117°48'1 1.1
2015-Mar-26 05:33N 32°59' W 117°49'3 2.7
2015-Mar-26 04:33N 32°57' W 117°46'2 1.9
2015-Mar-26 03:33N 32°56' W 117°44'1 0.9
2015-Mar-26 02:33N 32°56' W 117°43'1 1.0
2015-Mar-26 01:33N 32°57' W 117°44'2 2.0
2015-Mar-26 00:33N 32°56' W 117°42'1 1.2
2015-Mar-25 23:33N 32°57' W 117°42'1 0.5
2015-Mar-25 22:33N 32°57' W 117°43'2 1.5
2015-Mar-25 21:33N 32°58' W 117°44'2 2.5
2015-Mar-25 20:33N 32°59' W 117°47'0 0.4
2015-Mar-25 19:33N 32°59' W 117°47'3 2.7
2015-Mar-25 18:33N 33°02' W 117°49'4 3.8
2015-Mar-25 17:33N 33°04' W 117°51'4 3.6
2015-Mar-25 16:33N 33°07' W 117°54'5 5.1
2015-Mar-25 15:33N 33°11' W 117°59'1615.7
2015-Mar-25 14:34N 33°26' W 118°03'1717.2
2015-Mar-25 13:33N 33°42' W 118°11'4 4.3
2015-Mar-25 12:32N 33°46' W 118°13'0 0.0
2015-Mar-25 11:33N 33°46' W 118°13'0 0.0
2015-Mar-25 10:13N 33°46' W 118°13'0 0.0
2015-Mar-25 09:31N 33°46' W 118°13'0 0.0
2015-Mar-25 08:33N 33°46' W 118°13'0 0.0
2015-Mar-25 07:33N 33°46' W 118°13'1 0.9
2015-Mar-25 06:33N 33°45' W 118°13'1414.4
2015-Mar-25 05:33N 33°33' W 118°05'1717.2
2015-Mar-25 04:34N 33°17' W 117°56'1212.5
2015-Mar-25 03:33N 33°06' W 117°50'1 1.0
2015-Mar-25 02:33N 33°05' W 117°51'1 0.8
2015-Mar-25 01:33N 33°04' W 117°51'1 1.2
2015-Mar-25 00:33N 33°04' W 117°50'1 0.8
2015-Mar-24 23:33N 33°03' W 117°49'0 0.5
2015-Mar-24 22:33N 33°04' W 117°49'1 0.8
2015-Mar-24 21:33N 33°03' W 117°49'1 1.4
2015-Mar-24 20:33N 33°01' W 117°48'1 1.1
2015-Mar-24 19:33N 33°00' W 117°47'1 1.1
2015-Mar-24 18:29N 32°59' W 117°48'2 1.7
2015-Mar-24 17:33N 32°58' W 117°48'2 1.6
2015-Mar-24 16:33N 32°57' W 117°47'2 2.2
2015-Mar-24 15:34N 32°56' W 117°45'1 1.0
2015-Mar-24 14:33N 32°56' W 117°46'3 3.3
2015-Mar-24 13:33N 32°55' W 117°42'1 1.2
2015-Mar-24 12:33N 32°54' W 117°41'0 0.2
2015-Mar-24 11:33N 32°55' W 117°41'0 0.4
2015-Mar-24 10:34N 32°55' W 117°42'2 2.0
2015-Mar-24 09:33N 32°56' W 117°43'1 1.1
2015-Mar-24 08:33N 32°56' W 117°45'1 1.2
2015-Mar-24 07:33N 32°56' W 117°46'2 2.2
2015-Mar-24 06:33N 32°57' W 117°48'5 5.1
2015-Mar-24 05:33N 33°02' W 117°51'5 4.6
2015-Mar-24 04:33N 33°05' W 117°55'7 6.6
2015-Mar-24 03:33N 33°09' W 117°48'3 2.8
2015-Mar-24 02:33N 33°11' W 117°46'8 7.6
2015-Mar-24 01:33N 33°10' W 117°55'8 7.9
2015-Mar-24 00:33N 33°17' W 117°58'1312.9
2015-Mar-23 23:33N 33°29' W 118°03'1613.0
2015-Mar-23 22:21N 33°44' W 118°09'4 4.9
2015-Mar-23 21:34N 33°46' W 118°13'0 0.1
2015-Mar-23 20:33N 33°46' W 118°13'0 0.0
2015-Mar-23 19:33N 33°46' W 118°13'0 0.0
2015-Mar-23 18:34N 33°46' W 118°13'0 0.0
2015-Mar-23 17:33N 33°46' W 118°13'0 0.0
2015-Mar-23 16:33N 33°46' W 118°13'0 0.0
2015-Mar-23 15:33N 33°46' W 118°13'0 0.0
2015-Mar-23 14:31N 33°46' W 118°13'0 0.0
2015-Mar-23 13:33N 33°46' W 118°13'0 0.0
2015-Mar-23 12:34N 33°46' W 118°13'0 0.0
2015-Mar-23 11:34N 33°46' W 118°13'0 0.0
2015-Mar-23 10:33N 33°46' W 118°13'0 0.0
2015-Mar-23 09:33N 33°46' W 118°13'0 0.0
2015-Mar-23 08:33N 33°46' W 118°13'0 0.0
2015-Mar-23 07:33N 33°46' W 118°13'0 0.0
2015-Mar-23 06:34N 33°46' W 118°13'0 0.0
2015-Mar-23 05:34N 33°46' W 118°13'0 0.0
2015-Mar-23 04:33N 33°46' W 118°13'0 0.0
2015-Mar-23 03:33N 33°46' W 118°13'0 0.0
2015-Mar-23 02:34N 33°46' W 118°13'0 0.0
2015-Mar-23 01:33N 33°46' W 118°13'0 0.0
2015-Mar-23 00:34N 33°46' W 118°13'0 0.0
2015-Mar-22 23:33N 33°46' W 118°13'0 0.0
2015-Mar-22 22:34N 33°46' W 118°13'0 0.0
2015-Mar-22 21:33N 33°46' W 118°13'0 0.0
2015-Mar-22 20:34N 33°46' W 118°13'0 0.0
2015-Mar-22 19:34N 33°46' W 118°13'0 0.0
2015-Mar-22 18:34N 33°46' W 118°13'0 0.0
2015-Mar-22 17:33N 33°46' W 118°13'0 0.0
2015-Mar-22 16:33N 33°46' W 118°13'0 0.0
2015-Mar-22 15:33N 33°46' W 118°13'0 0.0
2015-Mar-22 14:33N 33°46' W 118°13'0 0.0
2015-Mar-22 13:33N 33°46' W 118°13'0 0.0
2015-Mar-22 12:33N 33°46' W 118°13'0 0.0
2015-Mar-22 11:33N 33°46' W 118°13'0 0.0
2015-Mar-22 10:33N 33°46' W 118°13'0 0.0
2015-Mar-22 09:34N 33°46' W 118°13'0 0.0
2015-Mar-22 08:33N 33°46' W 118°13'0 0.0
2015-Mar-22 07:33N 33°46' W 118°13'0 0.0
2015-Mar-22 06:33N 33°46' W 118°13'0 0.0
2015-Mar-22 05:33N 33°46' W 118°13'  
Track history (hours):
 
Tides and Currents Weather Stations Pressure Air Temp Water Temp Dewpoint Dewpoint Depression Visibility Wind Speed Wind Dir Waves Ship Positions

Piper Inness

Owner: Foss Maritime Co, Seattle, WA. More information available from US FCC via Universal Licensing System and Coast Guard Vessel Documentation Center.

Last reported at 2015-Apr-01 04:33 UTC. Time now 2015-Apr-01 04:37 UTC.
Position N 32°52' W 117°48'.

; draft 2 m.

Type: Other ship. MMSI: 367017440.

Date/timePositionNaut miles runAvg speedWind from/ knotsBaromVisibWave heightAir tempDewpointWater temp
2015-Apr-01 04:33N 32°52' W 117°48'0 0.3
2015-Apr-01 03:34N 32°52' W 117°48'0 0.4
2015-Apr-01 02:34N 32°51' W 117°49'2 2.4
2015-Apr-01 01:34N 32°49' W 117°49'5 4.5
2015-Apr-01 00:33N 32°45' W 117°46'4 4.3
2015-Mar-31 23:33N 32°42' W 117°43'1 1.1
2015-Mar-31 22:33N 32°41' W 117°43'3 2.7
2015-Mar-31 21:34N 32°39' W 117°40'1 1.1
2015-Mar-31 20:34N 32°38' W 117°40'1111.2
2015-Mar-31 19:33N 32°48' W 117°47'1414.0
2015-Mar-31 18:33N 32°59' W 117°57'1717.2
2015-Mar-31 17:34N 33°13' W 118°08'1716.9
2015-Mar-31 16:33N 33°28' W 118°19'8 6.3
2015-Mar-31 15:19N 33°35' W 118°18'1114.0
2015-Mar-31 14:33N 33°45' W 118°13'1 1.1
2015-Mar-31 13:32N 33°46' W 118°13'0 0.0
2015-Mar-31 12:33N 33°46' W 118°13'0 0.0
2015-Mar-31 11:33N 33°46' W 118°13'0 0.0
2015-Mar-31 10:33N 33°46' W 118°13'0 0.0
2015-Mar-31 09:33N 33°46' W 118°13'0 0.0
2015-Mar-31 08:33N 33°46' W 118°13'0 0.0
2015-Mar-31 07:31N 33°46' W 118°13'0 0.0
2015-Mar-31 06:32N 33°46' W 118°13'0 0.0
2015-Mar-31 05:33N 33°46' W 118°13'0 0.0
2015-Mar-31 04:32N 33°46' W 118°13'0 0.0
2015-Mar-31 03:33N 33°46' W 118°13'0 0.0
2015-Mar-31 02:33N 33°46' W 118°13'0 0.0
2015-Mar-31 01:33N 33°46' W 118°13'0 0.0
2015-Mar-31 00:33N 33°46' W 118°13'0 0.0
2015-Mar-30 23:33N 33°46' W 118°13'0 0.0
2015-Mar-30 22:33N 33°46' W 118°13'0 0.0
2015-Mar-30 21:33N 33°46' W 118°13'0 0.0
2015-Mar-30 20:33N 33°46' W 118°13'0 0.0
2015-Mar-30 19:33N 33°46' W 118°13'0 0.0
2015-Mar-30 18:33N 33°46' W 118°13'0 0.0
2015-Mar-30 17:33N 33°46' W 118°13'0 0.0
2015-Mar-30 16:33N 33°46' W 118°13'0 0.0
2015-Mar-30 15:33N 33°46' W 118°13'0 0.0
2015-Mar-30 14:33N 33°46' W 118°13'0 0.0
2015-Mar-30 13:33N 33°46' W 118°13'0 0.0
2015-Mar-30 12:33N 33°46' W 118°13'0 0.0
2015-Mar-30 11:33N 33°46' W 118°13'0 0.0
2015-Mar-30 10:33N 33°46' W 118°13'0 0.0
2015-Mar-30 09:33N 33°46' W 118°13'0 0.0
2015-Mar-30 08:31N 33°46' W 118°13'0 0.0
2015-Mar-30 07:33N 33°46' W 118°13'0 0.0
2015-Mar-30 06:33N 33°46' W 118°13'0 0.0
2015-Mar-30 05:33N 33°46' W 118°13'0 0.0
2015-Mar-30 04:33N 33°46' W 118°13'0 0.0
2015-Mar-30 03:33N 33°46' W 118°13'0 0.0
2015-Mar-30 02:33N 33°46' W 118°13'0 0.0
2015-Mar-30 01:33N 33°46' W 118°13'0 0.0
2015-Mar-30 00:33N 33°46' W 118°13'0 0.0
2015-Mar-29 23:33N 33°46' W 118°13'0 0.0
2015-Mar-29 22:33N 33°46' W 118°13'0 0.0
2015-Mar-29 21:33N 33°46' W 118°13'0 0.0
2015-Mar-29 20:33N 33°46' W 118°13'0 0.0
2015-Mar-29 19:33N 33°46' W 118°13'0 0.0
2015-Mar-29 18:33N 33°46' W 118°13'0 0.0
2015-Mar-29 17:33N 33°46' W 118°13'0 0.0
2015-Mar-29 16:33N 33°46' W 118°13'0 0.0
2015-Mar-29 15:33N 33°46' W 118°13'0 0.0
2015-Mar-29 14:32N 33°46' W 118°13'0 0.0
2015-Mar-29 13:33N 33°46' W 118°13'0 0.0
2015-Mar-29 12:31N 33°46' W 118°13'0 0.0
2015-Mar-29 11:33N 33°46' W 118°13'0 0.0
2015-Mar-29 10:33N 33°46' W 118°13'0 0.0
2015-Mar-29 09:33N 33°46' W 118°13'0 0.0
2015-Mar-29 08:33N 33°46' W 118°13'0 0.0
2015-Mar-29 07:33N 33°46' W 118°13'0 0.0
2015-Mar-29 06:33N 33°46' W 118°13'0 0.0
2015-Mar-29 05:33N 33°46' W 118°13'0 0.0
2015-Mar-29 04:33N 33°46' W 118°13'0 0.0
2015-Mar-29 03:33N 33°46' W 118°13'0 0.0
2015-Mar-29 02:33N 33°46' W 118°13'0 0.0
2015-Mar-29 01:33N 33°46' W 118°13'0 0.0
2015-Mar-29 00:33N 33°46' W 118°13'0 0.0
2015-Mar-28 23:33N 33°46' W 118°13'0 0.0
2015-Mar-28 22:33N 33°46' W 118°13'0 0.0
2015-Mar-28 21:33N 33°46' W 118°13'0 0.0
2015-Mar-28 20:33N 33°46' W 118°13'0 0.0
2015-Mar-28 19:33N 33°46' W 118°13'0 0.0
2015-Mar-28 18:33N 33°46' W 118°13'0 0.0
2015-Mar-28 17:33N 33°46' W 118°13'0 0.0
2015-Mar-28 16:33N 33°46' W 118°13'0 0.0
2015-Mar-28 15:33N 33°46' W 118°13'0 0.0
2015-Mar-28 14:33N 33°46' W 118°13'0 0.0
2015-Mar-28 13:33N 33°46' W 118°13'0 0.0
2015-Mar-28 12:23N 33°46' W 118°13'0 0.0
2015-Mar-28 11:32N 33°46' W 118°13'0 0.0
2015-Mar-28 10:33N 33°46' W 118°13'0 0.0
2015-Mar-28 09:33N 33°46' W 118°13'0 0.0
2015-Mar-28 08:33N 33°46' W 118°13'0 0.0
2015-Mar-28 07:33N 33°46' W 118°13'0 0.0
2015-Mar-28 06:33N 33°46' W 118°13'0 0.0
2015-Mar-28 05:33N 33°46' W 118°13'0 0.0
2015-Mar-28 04:33N 33°46' W 118°13'0 0.0
2015-Mar-28 03:33N 33°46' W 118°13'0 0.0
2015-Mar-28 02:33N 33°46' W 118°13'0 0.0
2015-Mar-28 01:33N 33°46' W 118°13'0 0.0
2015-Mar-28 00:33N 33°46' W 118°13'1 0.6
2015-Mar-27 23:33N 33°46' W 118°13'3 3.0
2015-Mar-27 22:33N 33°44' W 118°16'0 0.5
2015-Mar-27 21:33N 33°44' W 118°16'0 0.0
2015-Mar-27 20:33N 33°44' W 118°16'0 0.0
2015-Mar-27 19:33N 33°44' W 118°16'2 2.2
2015-Mar-27 18:33N 33°43' W 118°14'3 3.1
2015-Mar-27 17:33N 33°46' W 118°13'0 0.0
2015-Mar-27 16:33N 33°46' W 118°13'0 0.0
2015-Mar-27 15:33N 33°46' W 118°13'0 0.0
2015-Mar-27 14:33N 33°46' W 118°13'0 0.0
2015-Mar-27 13:33N 33°46' W 118°13'0 0.0
2015-Mar-27 12:33N 33°46' W 118°13'0 0.0
2015-Mar-27 11:33N 33°46' W 118°13'0 0.0
2015-Mar-27 10:33N 33°46' W 118°13'0 0.0
2015-Mar-27 09:33N 33°46' W 118°13'0 0.0
2015-Mar-27 08:33N 33°46' W 118°13'0 0.0
2015-Mar-27 07:33N 33°46' W 118°13'0 0.0
2015-Mar-27 06:33N 33°46' W 118°13'0 0.0
2015-Mar-27 05:33N 33°46' W 118°13'0 0.0
2015-Mar-27 04:33N 33°46' W 118°13'3 2.6
2015-Mar-27 03:33N 33°44' W 118°12'1 0.5
2015-Mar-27 02:33N 33°44' W 118°12'2 2.1
2015-Mar-27 01:34N 33°46' W 118°13'8 7.6
2015-Mar-27 00:33N 33°39' W 118°09'1716.8
2015-Mar-26 23:33N 33°24' W 118°00'1616.4
2015-Mar-26 22:33N 33°10' W 117°51'1 1.4
2015-Mar-26 21:33N 33°09' W 117°52'1 1.3
2015-Mar-26 20:33N 33°08' W 117°51'1 1.3
2015-Mar-26 19:33N 33°07' W 117°51'3 3.0
2015-Mar-26 18:33N 33°04' W 117°50'1 1.0
2015-Mar-26 17:33N 33°05' W 117°51'1 0.9
2015-Mar-26 16:33N 33°04' W 117°50'1 0.6
2015-Mar-26 15:33N 33°04' W 117°51'1 0.7
2015-Mar-26 14:33N 33°04' W 117°50'1 0.6
2015-Mar-26 13:33N 33°03' W 117°50'0 0.4
2015-Mar-26 12:33N 33°03' W 117°50'2 1.8
2015-Mar-26 11:33N 33°02' W 117°49'1 0.6
2015-Mar-26 10:33N 33°02' W 117°50'2 1.7
2015-Mar-26 09:33N 33°01' W 117°48'0 0.3
2015-Mar-26 08:33N 33°01' W 117°48'1 1.0
2015-Mar-26 07:33N 33°00' W 117°47'1 0.7
2015-Mar-26 06:33N 32°59' W 117°48'1 1.1
2015-Mar-26 05:33N 32°59' W 117°49'3 2.7
2015-Mar-26 04:33N 32°57' W 117°46'2 1.9
2015-Mar-26 03:33N 32°56' W 117°44'1 0.9
2015-Mar-26 02:33N 32°56' W 117°43'1 1.0
2015-Mar-26 01:33N 32°57' W 117°44'2 2.0
2015-Mar-26 00:33N 32°56' W 117°42'1 1.2
2015-Mar-25 23:33N 32°57' W 117°42'1 0.5
2015-Mar-25 22:33N 32°57' W 117°43'2 1.5
2015-Mar-25 21:33N 32°58' W 117°44'2 2.5
2015-Mar-25 20:33N 32°59' W 117°47'0 0.4
2015-Mar-25 19:33N 32°59' W 117°47'3 2.7
2015-Mar-25 18:33N 33°02' W 117°49'4 3.8
2015-Mar-25 17:33N 33°04' W 117°51'4 3.6
2015-Mar-25 16:33N 33°07' W 117°54'5 5.1
2015-Mar-25 15:33N 33°11' W 117°59'1615.7
2015-Mar-25 14:34N 33°26' W 118°03'1717.2
2015-Mar-25 13:33N 33°42' W 118°11'4 4.3
2015-Mar-25 12:32N 33°46' W 118°13'0 0.0
2015-Mar-25 11:33N 33°46' W 118°13'0 0.0
2015-Mar-25 10:13N 33°46' W 118°13'0 0.0
2015-Mar-25 09:31N 33°46' W 118°13'0 0.0
2015-Mar-25 08:33N 33°46' W 118°13'0 0.0
2015-Mar-25 07:33N 33°46' W 118°13'1 0.9
2015-Mar-25 06:33N 33°45' W 118°13'1414.4
2015-Mar-25 05:33N 33°33' W 118°05'1717.2
2015-Mar-25 04:34N 33°17' W 117°56'1212.5
2015-Mar-25 03:33N 33°06' W 117°50'1 1.0
2015-Mar-25 02:33N 33°05' W 117°51'1 0.8
2015-Mar-25 01:33N 33°04' W 117°51'1 1.2
2015-Mar-25 00:33N 33°04' W 117°50'1 0.8
2015-Mar-24 23:33N 33°03' W 117°49'0 0.5
2015-Mar-24 22:33N 33°04' W 117°49'1 0.8
2015-Mar-24 21:33N 33°03' W 117°49'1 1.4
2015-Mar-24 20:33N 33°01' W 117°48'1 1.1
2015-Mar-24 19:33N 33°00' W 117°47'1 1.1
2015-Mar-24 18:29N 32°59' W 117°48'2 1.7
2015-Mar-24 17:33N 32°58' W 117°48'2 1.6
2015-Mar-24 16:33N 32°57' W 117°47'2 2.2
2015-Mar-24 15:34N 32°56' W 117°45'1 1.0
2015-Mar-24 14:33N 32°56' W 117°46'3 3.3
2015-Mar-24 13:33N 32°55' W 117°42'1 1.2
2015-Mar-24 12:33N 32°54' W 117°41'0 0.2
2015-Mar-24 11:33N 32°55' W 117°41'0 0.4
2015-Mar-24 10:34N 32°55' W 117°42'2 2.0
2015-Mar-24 09:33N 32°56' W 117°43'1 1.1
2015-Mar-24 08:33N 32°56' W 117°45'1 1.2
2015-Mar-24 07:33N 32°56' W 117°46'2 2.2
2015-Mar-24 06:33N 32°57' W 117°48'5 5.1
2015-Mar-24 05:33N 33°02' W 117°51'5 4.6
2015-Mar-24 04:33N 33°05' W 117°55'7 6.6
2015-Mar-24 03:33N 33°09' W 117°48'3 2.8
2015-Mar-24 02:33N 33°11' W 117°46'8 7.6
2015-Mar-24 01:33N 33°10' W 117°55'8 7.9
2015-Mar-24 00:33N 33°17' W 117°58'1312.9
2015-Mar-23 23:33N 33°29' W 118°03'1613.0
2015-Mar-23 22:21N 33°44' W 118°09'4 4.9
2015-Mar-23 21:34N 33°46' W 118°13'0 0.1
2015-Mar-23 20:33N 33°46' W 118°13'0 0.0
2015-Mar-23 19:33N 33°46' W 118°13'0 0.0
2015-Mar-23 18:34N 33°46' W 118°13'0 0.0
2015-Mar-23 17:33N 33°46' W 118°13'0 0.0
2015-Mar-23 16:33N 33°46' W 118°13'0 0.0
2015-Mar-23 15:33N 33°46' W 118°13'0 0.0
2015-Mar-23 14:31N 33°46' W 118°13'0 0.0
2015-Mar-23 13:33N 33°46' W 118°13'0 0.0
2015-Mar-23 12:34N 33°46' W 118°13'0 0.0
2015-Mar-23 11:34N 33°46' W 118°13'0 0.0
2015-Mar-23 10:33N 33°46' W 118°13'0 0.0
2015-Mar-23 09:33N 33°46' W 118°13'0 0.0
2015-Mar-23 08:33N 33°46' W 118°13'0 0.0
2015-Mar-23 07:33N 33°46' W 118°13'0 0.0
2015-Mar-23 06:34N 33°46' W 118°13'0 0.0
2015-Mar-23 05:34N 33°46' W 118°13'0 0.0
2015-Mar-23 04:33N 33°46' W 118°13'0 0.0
2015-Mar-23 03:33N 33°46' W 118°13'0 0.0
2015-Mar-23 02:34N 33°46' W 118°13'0 0.0
2015-Mar-23 01:33N 33°46' W 118°13'0 0.0
2015-Mar-23 00:34N 33°46' W 118°13'0 0.0
2015-Mar-22 23:33N 33°46' W 118°13'0 0.0
2015-Mar-22 22:34N 33°46' W 118°13'0 0.0
2015-Mar-22 21:33N 33°46' W 118°13'0 0.0
2015-Mar-22 20:34N 33°46' W 118°13'0 0.0
2015-Mar-22 19:34N 33°46' W 118°13'0 0.0
2015-Mar-22 18:34N 33°46' W 118°13'0 0.0
2015-Mar-22 17:33N 33°46' W 118°13'0 0.0
2015-Mar-22 16:33N 33°46' W 118°13'0 0.0
2015-Mar-22 15:33N 33°46' W 118°13'0 0.0
2015-Mar-22 14:33N 33°46' W 118°13'0 0.0
2015-Mar-22 13:33N 33°46' W 118°13'0 0.0
2015-Mar-22 12:33N 33°46' W 118°13'0 0.0
2015-Mar-22 11:33N 33°46' W 118°13'0 0.0
2015-Mar-22 10:33N 33°46' W 118°13'0 0.0
2015-Mar-22 09:34N 33°46' W 118°13'0 0.0
2015-Mar-22 08:33N 33°46' W 118°13'0 0.0
2015-Mar-22 07:33N 33°46' W 118°13'0 0.0
2015-Mar-22 06:33N 33°46' W 118°13'0 0.0
2015-Mar-22 05:33N 33°46' W 118°13'  

Dump ship's entire track history